sensor_id;sensor_type;location;lat;lon;timestamp;pressure;altitude;pressure_sealevel;temperature;humidity
64679;BME280;51094;53.864;27.676;2023-04-07T00:01:37;99327.63;;;9.62;61.71
64679;BME280;51094;53.864;27.676;2023-04-07T00:04:04;99253.81;;;9.14;62.12
64679;BME280;51094;53.864;27.676;2023-04-07T00:06:31;99262.25;;;9.30;62.34
64679;BME280;51094;53.864;27.676;2023-04-07T00:08:58;99248.63;;;9.14;61.58
64679;BME280;51094;53.864;27.676;2023-04-07T00:11:25;99267.94;;;9.22;61.75
64679;BME280;51094;53.864;27.676;2023-04-07T00:13:51;99337.63;;;9.68;61.02
64679;BME280;51094;53.864;27.676;2023-04-07T00:16:19;99267.66;;;9.27;61.82
64679;BME280;51094;53.864;27.676;2023-04-07T00:18:46;99341.88;;;9.69;61.28
64679;BME280;51094;53.864;27.676;2023-04-07T00:21:12;99350.41;;;9.71;61.36
64679;BME280;51094;53.864;27.676;2023-04-07T00:23:39;99340.75;;;9.73;61.69
64679;BME280;51094;53.864;27.676;2023-04-07T00:26:06;99264.03;;;9.29;61.18
64679;BME280;51094;53.864;27.676;2023-04-07T00:28:34;99295.41;;;9.39;61.55
64679;BME280;51094;53.864;27.676;2023-04-07T00:31:01;99344.28;;;9.72;61.42
64679;BME280;51094;53.864;27.676;2023-04-07T00:33:27;99337.97;;;9.76;61.73
64679;BME280;51094;53.864;27.676;2023-04-07T00:35:54;99323.19;;;9.64;61.16
64679;BME280;51094;53.864;27.676;2023-04-07T00:38:25;99224.13;;;9.05;61.23
64679;BME280;51094;53.864;27.676;2023-04-07T00:40:59;99326.69;;;9.63;61.26
64679;BME280;51094;53.864;27.676;2023-04-07T00:43:26;99277.06;;;9.15;61.33
64679;BME280;51094;53.864;27.676;2023-04-07T00:45:53;99294.34;;;9.29;61.83
64679;BME280;51094;53.864;27.676;2023-04-07T00:48:20;99311.88;;;9.25;61.70
64679;BME280;51094;53.864;27.676;2023-04-07T00:50:47;99339.34;;;9.42;62.16
64679;BME280;51094;53.864;27.676;2023-04-07T00:53:14;99303.09;;;9.14;62.08
64679;BME280;51094;53.864;27.676;2023-04-07T00:55:41;99189.06;;;8.46;62.14
64679;BME280;51094;53.864;27.676;2023-04-07T00:58:08;99341.94;;;9.42;61.79
64679;BME280;51094;53.864;27.676;2023-04-07T01:00:54;99342.66;;;9.44;61.88
64679;BME280;51094;53.864;27.676;2023-04-07T01:03:34;99343.78;;;9.40;62.03
64679;BME280;51094;53.864;27.676;2023-04-07T01:06:04;99336.25;;;9.23;62.78
64679;BME280;51094;53.864;27.676;2023-04-07T01:11:27;99341.72;;;9.18;62.44
64679;BME280;51094;53.864;27.676;2023-04-07T01:13:57;99248.19;;;8.80;62.66
64679;BME280;51094;53.864;27.676;2023-04-07T01:16:58;99342.97;;;9.40;62.36
64679;BME280;51094;53.864;27.676;2023-04-07T01:19:35;99348.97;;;9.40;62.66
64679;BME280;51094;53.864;27.676;2023-04-07T01:22:09;99346.13;;;9.30;62.69
64679;BME280;51094;53.864;27.676;2023-04-07T01:30:22;99349.75;;;9.28;62.74
64679;BME280;51094;53.864;27.676;2023-04-07T01:32:51;99357.63;;;9.26;63.41
64679;BME280;51094;53.864;27.676;2023-04-07T01:35:20;99316.69;;;9.05;62.85
64679;BME280;51094;53.864;27.676;2023-04-07T01:37:48;99354.31;;;9.24;63.30
64679;BME280;51094;53.864;27.676;2023-04-07T01:40:16;99337.84;;;9.11;62.87
64679;BME280;51094;53.864;27.676;2023-04-07T01:42:44;99313.63;;;8.98;63.46
64679;BME280;51094;53.864;27.676;2023-04-07T01:45:12;99355.13;;;9.25;63.55
64679;BME280;51094;53.864;27.676;2023-04-07T01:47:42;99354.03;;;9.29;62.79
64679;BME280;51094;53.864;27.676;2023-04-07T01:50:10;99241.72;;;8.46;62.98
64679;BME280;51094;53.864;27.676;2023-04-07T01:52:38;99353.84;;;9.18;63.14
64679;BME280;51094;53.864;27.676;2023-04-07T01:55:06;99354.31;;;9.24;63.09
64679;BME280;51094;53.864;27.676;2023-04-07T01:57:37;99348.81;;;9.29;63.37
64679;BME280;51094;53.864;27.676;2023-04-07T02:00:11;99334.19;;;9.28;63.46
64679;BME280;51094;53.864;27.676;2023-04-07T02:02:43;99350.88;;;9.51;63.19
64679;BME280;51094;53.864;27.676;2023-04-07T02:05:12;99044.94;;;7.62;62.80
64679;BME280;51094;53.864;27.676;2023-04-07T02:07:52;99371.31;;;9.43;62.88
64679;BME280;51094;53.864;27.676;2023-04-07T02:10:23;99361.84;;;9.42;62.84
64679;BME280;51094;53.864;27.676;2023-04-07T02:12:52;99377.25;;;9.45;62.92
64679;BME280;51094;53.864;27.676;2023-04-07T02:15:21;99352.56;;;9.52;62.76
64679;BME280;51094;53.864;27.676;2023-04-07T02:17:51;99326.13;;;9.32;62.87
64679;BME280;51094;53.864;27.676;2023-04-07T02:20:19;99355.53;;;9.46;62.34
64679;BME280;51094;53.864;27.676;2023-04-07T02:22:46;99336.88;;;9.26;63.58
64679;BME280;51094;53.864;27.676;2023-04-07T02:25:26;99356.13;;;9.37;62.81
64679;BME280;51094;53.864;27.676;2023-04-07T02:27:55;99351.56;;;9.40;63.45
64679;BME280;51094;53.864;27.676;2023-04-07T02:30:22;99339.19;;;9.31;63.71
64679;BME280;51094;53.864;27.676;2023-04-07T02:32:49;99359.50;;;9.51;63.09
64679;BME280;51094;53.864;27.676;2023-04-07T02:35:17;99352.84;;;9.47;62.75
64679;BME280;51094;53.864;27.676;2023-04-07T02:37:45;99382.66;;;9.54;62.98
64679;BME280;51094;53.864;27.676;2023-04-07T02:40:15;99362.59;;;9.44;63.13
64679;BME280;51094;53.864;27.676;2023-04-07T02:42:42;99286.50;;;8.89;62.81
64679;BME280;51094;53.864;27.676;2023-04-07T02:45:09;99379.31;;;9.25;63.25
64679;BME280;51094;53.864;27.676;2023-04-07T02:47:37;99277.75;;;8.78;62.94
64679;BME280;51094;53.864;27.676;2023-04-07T02:50:05;99326.97;;;9.06;63.43
64679;BME280;51094;53.864;27.676;2023-04-07T02:52:34;99379.28;;;9.40;63.43
64679;BME280;51094;53.864;27.676;2023-04-07T02:55:05;99294.19;;;8.91;63.12
64679;BME280;51094;53.864;27.676;2023-04-07T02:57:33;99371.03;;;9.47;63.40
64679;BME280;51094;53.864;27.676;2023-04-07T03:00:03;99340.59;;;9.22;63.16
64679;BME280;51094;53.864;27.676;2023-04-07T03:02:46;99376.16;;;9.34;62.89
64679;BME280;51094;53.864;27.676;2023-04-07T03:05:14;99317.00;;;8.86;62.78
64679;BME280;51094;53.864;27.676;2023-04-07T03:07:41;99321.63;;;8.81;63.20
64679;BME280;51094;53.864;27.676;2023-04-07T03:10:10;99384.44;;;9.13;63.50
64679;BME280;51094;53.864;27.676;2023-04-07T03:12:37;99354.97;;;8.87;64.01
64679;BME280;51094;53.864;27.676;2023-04-07T03:15:04;99386.25;;;8.98;63.39
64679;BME280;51094;53.864;27.676;2023-04-07T03:17:33;99323.44;;;8.52;63.76
64679;BME280;51094;53.864;27.676;2023-04-07T03:20:00;99381.91;;;8.84;64.26
64679;BME280;51094;53.864;27.676;2023-04-07T03:22:28;99296.69;;;8.23;65.19
64679;BME280;51094;53.864;27.676;2023-04-07T03:24:55;99307.16;;;8.21;64.24
64679;BME280;51094;53.864;27.676;2023-04-07T03:27:23;99369.25;;;8.51;64.65
64679;BME280;51094;53.864;27.676;2023-04-07T03:29:51;99400.47;;;8.64;65.32
64679;BME280;51094;53.864;27.676;2023-04-07T03:32:18;99386.94;;;8.59;65.45
64679;BME280;51094;53.864;27.676;2023-04-07T03:34:45;99367.66;;;8.20;65.19
64679;BME280;51094;53.864;27.676;2023-04-07T03:37:12;99368.75;;;8.30;65.09
64679;BME280;51094;53.864;27.676;2023-04-07T03:39:40;99396.09;;;8.50;65.51
64679;BME280;51094;53.864;27.676;2023-04-07T03:42:22;99392.41;;;8.54;65.74
64679;BME280;51094;53.864;27.676;2023-04-07T03:44:53;99305.00;;;7.99;65.19
64679;BME280;51094;53.864;27.676;2023-04-07T03:47:19;99258.72;;;7.65;65.52
64679;BME280;51094;53.864;27.676;2023-04-07T03:49:52;99394.44;;;8.49;65.37
64679;BME280;51094;53.864;27.676;2023-04-07T03:52:20;99407.75;;;8.43;65.44
64679;BME280;51094;53.864;27.676;2023-04-07T03:54:51;99403.31;;;8.45;66.21
64679;BME280;51094;53.864;27.676;2023-04-07T03:57:22;99337.25;;;7.94;65.77
64679;BME280;51094;53.864;27.676;2023-04-07T03:59:50;99308.78;;;7.80;66.00
64679;BME280;51094;53.864;27.676;2023-04-07T04:02:17;99411.34;;;8.41;65.94
64679;BME280;51094;53.864;27.676;2023-04-07T04:04:48;99308.94;;;7.77;66.42
64679;BME280;51094;53.864;27.676;2023-04-07T04:07:16;99288.94;;;7.64;65.91
64679;BME280;51094;53.864;27.676;2023-04-07T04:09:47;99398.31;;;8.42;65.67
64679;BME280;51094;53.864;27.676;2023-04-07T04:12:13;99389.06;;;8.38;65.94
64679;BME280;51094;53.864;27.676;2023-04-07T04:14:49;99384.19;;;8.32;66.47
64679;BME280;51094;53.864;27.676;2023-04-07T04:17:17;99317.94;;;7.99;66.43
64679;BME280;51094;53.864;27.676;2023-04-07T04:19:45;99407.94;;;8.54;65.71
64679;BME280;51094;53.864;27.676;2023-04-07T04:22:38;99413.13;;;8.68;66.27
64679;BME280;51094;53.864;27.676;2023-04-07T04:25:05;99412.94;;;8.72;66.06
64679;BME280;51094;53.864;27.676;2023-04-07T04:27:33;99436.47;;;8.83;65.83
64679;BME280;51094;53.864;27.676;2023-04-07T04:30:15;99396.63;;;8.70;66.09
64679;BME280;51094;53.864;27.676;2023-04-07T04:32:50;99439.53;;;9.04;64.99
64679;BME280;51094;53.864;27.676;2023-04-07T04:35:22;99409.78;;;8.95;65.38
64679;BME280;51094;53.864;27.676;2023-04-07T04:38:02;99396.44;;;8.87;65.25
64679;BME280;51094;53.864;27.676;2023-04-07T04:40:29;99285.19;;;8.27;64.32
64679;BME280;51094;53.864;27.676;2023-04-07T04:42:57;99439.38;;;9.19;64.59
64679;BME280;51094;53.864;27.676;2023-04-07T04:45:24;99355.91;;;8.72;65.05
64679;BME280;51094;53.864;27.676;2023-04-07T04:47:51;99417.56;;;9.09;64.53
64679;BME280;51094;53.864;27.676;2023-04-07T04:50:19;99298.09;;;8.43;64.40
64679;BME280;51094;53.864;27.676;2023-04-07T04:52:47;99445.19;;;9.37;64.62
64679;BME280;51094;53.864;27.676;2023-04-07T04:55:21;99354.59;;;8.93;64.87
64679;BME280;51094;53.864;27.676;2023-04-07T04:57:47;99387.59;;;9.18;64.00
64679;BME280;51094;53.864;27.676;2023-04-07T05:00:21;99409.88;;;9.34;64.05
64679;BME280;51094;53.864;27.676;2023-04-07T05:02:53;99446.72;;;9.54;64.43
64679;BME280;51094;53.864;27.676;2023-04-07T05:05:21;99422.09;;;9.47;64.29
64679;BME280;51094;53.864;27.676;2023-04-07T05:07:50;99427.00;;;9.51;63.73
64679;BME280;51094;53.864;27.676;2023-04-07T05:10:17;99451.97;;;9.66;64.37
64679;BME280;51094;53.864;27.676;2023-04-07T05:12:48;99453.34;;;9.72;63.89
64679;BME280;51094;53.864;27.676;2023-04-07T05:15:15;99416.66;;;9.64;63.70
64679;BME280;51094;53.864;27.676;2023-04-07T05:17:45;99456.84;;;9.98;63.60
64679;BME280;51094;53.864;27.676;2023-04-07T05:20:21;99455.06;;;9.98;62.75
64679;BME280;51094;53.864;27.676;2023-04-07T05:22:48;99457.66;;;9.98;63.40
64679;BME280;51094;53.864;27.676;2023-04-07T05:25:16;99465.47;;;9.98;63.47
64679;BME280;51094;53.864;27.676;2023-04-07T05:27:45;99418.22;;;9.66;63.64
64679;BME280;51094;53.864;27.676;2023-04-07T05:30:14;99458.75;;;10.09;63.73
64679;BME280;51094;53.864;27.676;2023-04-07T05:32:42;99441.38;;;10.09;63.04
64679;BME280;51094;53.864;27.676;2023-04-07T05:35:19;99457.28;;;10.31;62.46
64679;BME280;51094;53.864;27.676;2023-04-07T05:37:51;99461.75;;;10.42;62.72
64679;BME280;51094;53.864;27.676;2023-04-07T05:40:18;99375.28;;;10.00;62.30
64679;BME280;51094;53.864;27.676;2023-04-07T05:42:45;99435.00;;;10.40;62.15
64679;BME280;51094;53.864;27.676;2023-04-07T05:45:13;99466.25;;;10.78;62.00
64679;BME280;51094;53.864;27.676;2023-04-07T05:47:43;99444.41;;;10.68;61.49
64679;BME280;51094;53.864;27.676;2023-04-07T05:50:13;99386.47;;;10.28;61.11
64679;BME280;51094;53.864;27.676;2023-04-07T05:52:43;99474.16;;;10.77;61.23
64679;BME280;51094;53.864;27.676;2023-04-07T05:55:19;99399.66;;;10.25;61.37
64679;BME280;51094;53.864;27.676;2023-04-07T05:57:47;99480.59;;;10.58;61.08
64679;BME280;51094;53.864;27.676;2023-04-07T06:00:18;99436.59;;;10.30;61.49
64679;BME280;51094;53.864;27.676;2023-04-07T06:02:54;99369.50;;;9.70;61.31
64679;BME280;51094;53.864;27.676;2023-04-07T06:05:22;99432.44;;;10.00;61.51
64679;BME280;51094;53.864;27.676;2023-04-07T06:07:52;99468.41;;;10.07;62.27
64679;BME280;51094;53.864;27.676;2023-04-07T06:10:20;99449.13;;;9.84;62.59
64679;BME280;51094;53.864;27.676;2023-04-07T06:12:47;99425.66;;;9.85;62.10
64679;BME280;51094;53.864;27.676;2023-04-07T06:15:14;99413.25;;;9.76;63.13
64679;BME280;51094;53.864;27.676;2023-04-07T06:17:41;99441.16;;;9.99;62.62
64679;BME280;51094;53.864;27.676;2023-04-07T06:20:11;99407.03;;;9.79;62.74
64679;BME280;51094;53.864;27.676;2023-04-07T06:22:38;99468.91;;;10.26;62.83
64679;BME280;51094;53.864;27.676;2023-04-07T06:25:06;99497.94;;;10.45;62.29
64679;BME280;51094;53.864;27.676;2023-04-07T06:27:34;99487.66;;;10.56;62.62
64679;BME280;51094;53.864;27.676;2023-04-07T06:30:01;99489.44;;;10.69;62.12
64679;BME280;51094;53.864;27.676;2023-04-07T06:32:28;99409.59;;;10.18;61.56
64679;BME280;51094;53.864;27.676;2023-04-07T06:34:56;99385.88;;;9.97;62.04
64679;BME280;51094;53.864;27.676;2023-04-07T06:37:22;99482.66;;;10.53;62.30
64679;BME280;51094;53.864;27.676;2023-04-07T06:39:51;99504.31;;;10.66;62.28
64679;BME280;51094;53.864;27.676;2023-04-07T06:42:17;99505.34;;;10.64;61.81
64679;BME280;51094;53.864;27.676;2023-04-07T06:44:55;99480.25;;;10.50;61.96
64679;BME280;51094;53.864;27.676;2023-04-07T06:47:22;99421.84;;;10.04;62.38
64679;BME280;51094;53.864;27.676;2023-04-07T06:49:49;99465.19;;;10.30;62.62
64679;BME280;51094;53.864;27.676;2023-04-07T06:52:16;99487.00;;;10.40;63.27
64679;BME280;51094;53.864;27.676;2023-04-07T06:54:43;99363.28;;;9.73;64.06
64679;BME280;51094;53.864;27.676;2023-04-07T06:57:10;99442.38;;;10.21;63.71
64679;BME280;51094;53.864;27.676;2023-04-07T06:59:37;99495.88;;;10.63;64.61
64679;BME280;51094;53.864;27.676;2023-04-07T07:02:04;99434.00;;;10.55;64.68
64679;BME280;51094;53.864;27.676;2023-04-07T07:04:33;99503.88;;;11.23;64.21
64679;BME280;51094;53.864;27.676;2023-04-07T07:07:00;99500.81;;;11.42;63.44
64679;BME280;51094;53.864;27.676;2023-04-07T07:09:28;99496.50;;;11.54;63.00
64679;BME280;51094;53.864;27.676;2023-04-07T07:11:55;99501.94;;;11.75;62.89
64679;BME280;51094;53.864;27.676;2023-04-07T07:14:23;99425.81;;;11.47;62.63
64679;BME280;51094;53.864;27.676;2023-04-07T07:16:49;99499.19;;;12.02;61.92
64679;BME280;51094;53.864;27.676;2023-04-07T07:19:16;99482.03;;;11.86;61.80
64679;BME280;51094;53.864;27.676;2023-04-07T07:21:43;99493.91;;;11.90;61.01
64679;BME280;51094;53.864;27.676;2023-04-07T07:24:10;99512.22;;;12.02;61.79
64679;BME280;51094;53.864;27.676;2023-04-07T07:26:36;99510.88;;;11.96;61.11
64679;BME280;51094;53.864;27.676;2023-04-07T07:29:03;99491.03;;;11.82;61.73
64679;BME280;51094;53.864;27.676;2023-04-07T07:31:30;99442.16;;;11.49;61.76
64679;BME280;51094;53.864;27.676;2023-04-07T07:33:57;99525.56;;;11.97;62.92
64679;BME280;51094;53.864;27.676;2023-04-07T07:36:24;99480.38;;;11.49;61.14
64679;BME280;51094;53.864;27.676;2023-04-07T07:38:52;99522.19;;;11.71;62.18
64679;BME280;51094;53.864;27.676;2023-04-07T07:41:19;99505.06;;;11.56;62.16
64679;BME280;51094;53.864;27.676;2023-04-07T07:43:46;99414.28;;;11.02;62.16
64679;BME280;51094;53.864;27.676;2023-04-07T07:46:14;99533.31;;;11.86;62.10
64679;BME280;51094;53.864;27.676;2023-04-07T07:48:41;99496.44;;;11.79;62.20
64679;BME280;51094;53.864;27.676;2023-04-07T07:51:07;99546.25;;;12.11;60.94
64679;BME280;51094;53.864;27.676;2023-04-07T07:53:34;99469.13;;;11.72;61.26
64679;BME280;51094;53.864;27.676;2023-04-07T07:56:01;99497.47;;;11.89;61.44
64679;BME280;51094;53.864;27.676;2023-04-07T07:58:28;99478.22;;;11.79;61.23
64679;BME280;51094;53.864;27.676;2023-04-07T08:00:55;99536.41;;;12.15;60.63
64679;BME280;51094;53.864;27.676;2023-04-07T08:03:21;99523.75;;;12.10;61.22
64679;BME280;51094;53.864;27.676;2023-04-07T08:05:48;99494.13;;;12.11;60.19
64679;BME280;51094;53.864;27.676;2023-04-07T08:08:15;99505.47;;;12.34;59.30
64679;BME280;51094;53.864;27.676;2023-04-07T08:10:42;99507.28;;;12.45;60.13
64679;BME280;51094;53.864;27.676;2023-04-07T08:13:09;99524.53;;;12.70;59.82
64679;BME280;51094;53.864;27.676;2023-04-07T08:15:36;99462.13;;;12.44;60.40
64679;BME280;51094;53.864;27.676;2023-04-07T08:18:03;99481.91;;;12.58;59.68
64679;BME280;51094;53.864;27.676;2023-04-07T08:20:32;99548.56;;;12.97;59.21
64679;BME280;51094;53.864;27.676;2023-04-07T08:22:59;99542.84;;;12.92;60.07
64679;BME280;51094;53.864;27.676;2023-04-07T08:25:28;99471.16;;;12.51;59.70
64679;BME280;51094;53.864;27.676;2023-04-07T08:27:55;99532.88;;;13.08;59.20
64679;BME280;51094;53.864;27.676;2023-04-07T08:30:22;99522.38;;;13.21;58.83
64679;BME280;51094;53.864;27.676;2023-04-07T08:32:49;99544.91;;;13.67;58.77
64679;BME280;51094;53.864;27.676;2023-04-07T08:35:16;99549.94;;;13.90;58.23
64679;BME280;51094;53.864;27.676;2023-04-07T08:37:43;99516.50;;;13.73;57.27
64679;BME280;51094;53.864;27.676;2023-04-07T08:40:10;99553.28;;;13.92;57.51
64679;BME280;51094;53.864;27.676;2023-04-07T08:42:41;99555.22;;;13.79;57.21
64679;BME280;51094;53.864;27.676;2023-04-07T08:45:09;99541.94;;;13.60;57.10
64679;BME280;51094;53.864;27.676;2023-04-07T08:47:36;99554.75;;;13.74;57.70
64679;BME280;51094;53.864;27.676;2023-04-07T08:50:09;99556.00;;;13.91;57.77
64679;BME280;51094;53.864;27.676;2023-04-07T08:52:52;99500.66;;;13.43;57.17
64679;BME280;51094;53.864;27.676;2023-04-07T08:55:19;99506.06;;;13.51;57.90
64679;BME280;51094;53.864;27.676;2023-04-07T08:57:46;99557.38;;;13.74;58.04
64679;BME280;51094;53.864;27.676;2023-04-07T09:00:13;99505.16;;;13.18;58.05
64679;BME280;51094;53.864;27.676;2023-04-07T09:02:42;99555.72;;;13.51;58.92
64679;BME280;51094;53.864;27.676;2023-04-07T09:05:11;99573.75;;;13.54;58.80
64679;BME280;51094;53.864;27.676;2023-04-07T09:07:40;99558.31;;;13.62;59.11
64679;BME280;51094;53.864;27.676;2023-04-07T09:10:08;99562.84;;;13.60;58.23
64679;BME280;51094;53.864;27.676;2023-04-07T09:12:35;99486.97;;;12.94;58.05
64679;BME280;51094;53.864;27.676;2023-04-07T09:15:05;99572.81;;;13.44;58.64
64679;BME280;51094;53.864;27.676;2023-04-07T09:17:32;99507.50;;;12.99;58.75
64679;BME280;51094;53.864;27.676;2023-04-07T09:19:59;99566.66;;;13.34;59.25
64679;BME280;51094;53.864;27.676;2023-04-07T09:22:39;99567.59;;;13.44;58.89
64679;BME280;51094;53.864;27.676;2023-04-07T09:25:11;99566.88;;;13.75;59.54
64679;BME280;51094;53.864;27.676;2023-04-07T09:27:38;99480.44;;;13.45;57.67
64679;BME280;51094;53.864;27.676;2023-04-07T09:30:13;99559.69;;;13.99;58.06
64679;BME280;51094;53.864;27.676;2023-04-07T09:32:41;99569.88;;;14.14;57.79
64679;BME280;51094;53.864;27.676;2023-04-07T09:35:08;99479.19;;;13.82;57.10
64679;BME280;51094;53.864;27.676;2023-04-07T09:37:35;99564.44;;;14.70;57.41
64679;BME280;51094;53.864;27.676;2023-04-07T09:40:03;99525.22;;;14.79;55.93
64679;BME280;51094;53.864;27.676;2023-04-07T09:42:31;99477.38;;;14.68;55.67
64679;BME280;51094;53.864;27.676;2023-04-07T09:45:01;99491.06;;;14.81;55.66
64679;BME280;51094;53.864;27.676;2023-04-07T09:47:29;99562.31;;;15.36;55.21
64679;BME280;51094;53.864;27.676;2023-04-07T09:49:57;99536.13;;;15.36;55.57
64679;BME280;51094;53.864;27.676;2023-04-07T09:52:49;99565.88;;;15.55;54.56
64679;BME280;51094;53.864;27.676;2023-04-07T09:55:21;99562.31;;;15.66;54.80
64679;BME280;51094;53.864;27.676;2023-04-07T09:57:49;99512.72;;;15.44;54.84
64679;BME280;51094;53.864;27.676;2023-04-07T10:00:17;99550.44;;;15.62;54.51
64679;BME280;51094;53.864;27.676;2023-04-07T10:02:44;99565.78;;;15.57;54.10
64679;BME280;51094;53.864;27.676;2023-04-07T10:05:11;99535.22;;;15.16;55.41
64679;BME280;51094;53.864;27.676;2023-04-07T10:07:38;99571.41;;;15.31;55.24
64679;BME280;51094;53.864;27.676;2023-04-07T10:10:08;99577.69;;;15.19;55.11
64679;BME280;51094;53.864;27.676;2023-04-07T10:12:38;99444.22;;;14.15;55.75
64679;BME280;51094;53.864;27.676;2023-04-07T10:15:07;99522.31;;;14.52;56.20
64679;BME280;51094;53.864;27.676;2023-04-07T10:17:35;99389.81;;;13.56;55.98
64679;BME280;51094;53.864;27.676;2023-04-07T10:20:04;99582.72;;;14.49;56.58
64679;BME280;51094;53.864;27.676;2023-04-07T10:22:32;99584.47;;;14.59;56.56
64679;BME280;51094;53.864;27.676;2023-04-07T10:25:08;99583.72;;;14.69;56.02
64679;BME280;51094;53.864;27.676;2023-04-07T10:27:43;99569.28;;;14.74;56.51
64679;BME280;51094;53.864;27.676;2023-04-07T10:30:25;99586.59;;;15.07;56.28
64679;BME280;51094;53.864;27.676;2023-04-07T10:32:54;99574.34;;;15.59;55.92
64679;BME280;51094;53.864;27.676;2023-04-07T10:35:21;99580.50;;;15.98;54.78
64679;BME280;51094;53.864;27.676;2023-04-07T10:38:20;99548.22;;;16.17;54.66
64679;BME280;51094;53.864;27.676;2023-04-07T10:40:48;99580.84;;;16.43;53.87
64679;BME280;51094;53.864;27.676;2023-04-07T10:43:35;99555.28;;;16.26;53.51
64679;BME280;51094;53.864;27.676;2023-04-07T10:46:02;99567.28;;;16.19;53.03
64679;BME280;51094;53.864;27.676;2023-04-07T10:48:29;99523.19;;;15.84;53.64
64679;BME280;51094;53.864;27.676;2023-04-07T10:53:32;99576.41;;;16.44;53.85
64679;BME280;51094;53.864;27.676;2023-04-07T10:55:59;99513.16;;;16.18;53.75
64679;BME280;51094;53.864;27.676;2023-04-07T10:58:32;99577.34;;;16.91;52.24
64679;BME280;51094;53.864;27.676;2023-04-07T11:03:32;99576.88;;;17.24;50.36
64679;BME280;51094;53.864;27.676;2023-04-07T11:06:08;99582.25;;;17.33;51.53
64679;BME280;51094;53.864;27.676;2023-04-07T11:08:40;99583.41;;;17.11;52.05
64679;BME280;51094;53.864;27.676;2023-04-07T11:11:15;99542.69;;;16.49;50.84
64679;BME280;51094;53.864;27.676;2023-04-07T11:13:47;99534.25;;;16.07;52.26
64679;BME280;51094;53.864;27.676;2023-04-07T11:16:16;99585.50;;;16.20;51.94
64679;BME280;51094;53.864;27.676;2023-04-07T11:18:44;99559.25;;;15.91;53.55
64679;BME280;51094;53.864;27.676;2023-04-07T11:21:17;99598.16;;;16.06;53.82
64679;BME280;51094;53.864;27.676;2023-04-07T11:23:45;99591.84;;;16.18;53.91
64679;BME280;51094;53.864;27.676;2023-04-07T11:26:14;99596.81;;;16.02;53.97
64679;BME280;51094;53.864;27.676;2023-04-07T11:28:51;99587.56;;;15.67;54.17
64679;BME280;51094;53.864;27.676;2023-04-07T11:31:26;99588.97;;;15.41;54.63
64679;BME280;51094;53.864;27.676;2023-04-07T11:34:01;99608.72;;;15.24;55.55
64679;BME280;51094;53.864;27.676;2023-04-07T11:36:36;99624.53;;;14.92;56.06
64679;BME280;51094;53.864;27.676;2023-04-07T11:39:03;99610.16;;;14.86;56.59
64679;BME280;51094;53.864;27.676;2023-04-07T11:41:31;99587.94;;;14.60;57.13
64679;BME280;51094;53.864;27.676;2023-04-07T11:44:07;99610.78;;;14.58;57.63
64679;BME280;51094;53.864;27.676;2023-04-07T11:46:34;99616.63;;;14.50;57.60
64679;BME280;51094;53.864;27.676;2023-04-07T11:49:12;99577.69;;;14.25;58.09
64679;BME280;51094;53.864;27.676;2023-04-07T11:51:42;99607.59;;;14.32;58.35
64679;BME280;51094;53.864;27.676;2023-04-07T11:54:09;99588.84;;;14.27;59.15
64679;BME280;51094;53.864;27.676;2023-04-07T11:56:45;99616.50;;;14.41;59.64
64679;BME280;51094;53.864;27.676;2023-04-07T11:59:20;99621.03;;;14.50;59.61
64679;BME280;51094;53.864;27.676;2023-04-07T12:01:49;99614.06;;;14.71;59.63
64679;BME280;51094;53.864;27.676;2023-04-07T12:04:17;99559.63;;;14.75;59.45
64679;BME280;51094;53.864;27.676;2023-04-07T12:06:46;99443.59;;;14.23;57.54
64679;BME280;51094;53.864;27.676;2023-04-07T12:09:33;99608.84;;;15.43;57.74
64679;BME280;51094;53.864;27.676;2023-04-07T12:12:02;99610.00;;;15.50;57.63
64679;BME280;51094;53.864;27.676;2023-04-07T12:14:31;99604.47;;;15.53;57.58
64679;BME280;51094;53.864;27.676;2023-04-07T12:16:58;99473.53;;;14.72;57.46
64679;BME280;51094;53.864;27.676;2023-04-07T12:19:28;99581.38;;;15.38;57.70
64679;BME280;51094;53.864;27.676;2023-04-07T12:21:56;99563.34;;;15.44;57.09
64679;BME280;51094;53.864;27.676;2023-04-07T12:24:22;99604.34;;;16.64;55.74
64679;BME280;51094;53.864;27.676;2023-04-07T12:26:49;99560.91;;;16.99;55.38
64679;BME280;51094;53.864;27.676;2023-04-07T12:29:16;99605.09;;;17.22;53.36
64679;BME280;51094;53.864;27.676;2023-04-07T12:31:45;99546.16;;;16.40;53.04
64679;BME280;51094;53.864;27.676;2023-04-07T12:34:16;99533.53;;;15.85;54.06
64679;BME280;51094;53.864;27.676;2023-04-07T12:36:42;99609.94;;;16.21;55.17
64679;BME280;51094;53.864;27.676;2023-04-07T12:39:10;99473.72;;;15.20;55.67
64679;BME280;51094;53.864;27.676;2023-04-07T12:41:37;99585.25;;;15.74;55.78
64679;BME280;51094;53.864;27.676;2023-04-07T12:44:05;99605.22;;;15.65;56.60
64679;BME280;51094;53.864;27.676;2023-04-07T12:46:31;99577.94;;;15.16;56.42
64679;BME280;51094;53.864;27.676;2023-04-07T12:48:58;99589.59;;;15.03;57.06
64679;BME280;51094;53.864;27.676;2023-04-07T12:51:26;99608.75;;;15.03;58.02
64679;BME280;51094;53.864;27.676;2023-04-07T12:53:53;99608.69;;;14.93;58.69
64679;BME280;51094;53.864;27.676;2023-04-07T12:56:20;99615.75;;;14.82;58.61
64679;BME280;51094;53.864;27.676;2023-04-07T12:58:49;99544.53;;;14.25;58.08
64679;BME280;51094;53.864;27.676;2023-04-07T13:01:16;99559.97;;;14.28;58.64
64679;BME280;51094;53.864;27.676;2023-04-07T13:03:43;99610.97;;;14.66;58.71
64679;BME280;51094;53.864;27.676;2023-04-07T13:06:10;99577.88;;;14.33;59.04
64679;BME280;51094;53.864;27.676;2023-04-07T13:08:38;99576.41;;;14.19;59.05
64679;BME280;51094;53.864;27.676;2023-04-07T13:11:05;99627.09;;;14.39;59.24
64679;BME280;51094;53.864;27.676;2023-04-07T13:13:32;99573.81;;;14.08;60.08
64679;BME280;51094;53.864;27.676;2023-04-07T13:15:59;99563.72;;;13.92;60.06
64679;BME280;51094;53.864;27.676;2023-04-07T13:18:26;99617.66;;;14.16;60.88
64679;BME280;51094;53.864;27.676;2023-04-07T13:20:53;99480.94;;;13.27;60.72